createdAt,value
2023-05-01T00:03:39.262Z,100.00
2023-05-01T00:07:41.400Z,100.00
2023-05-01T00:11:43.417Z,100.00
2023-05-01T00:15:45.551Z,100.00
2023-05-01T00:19:51.268Z,100.00
2023-05-01T00:23:53.516Z,100.00
2023-05-01T00:27:55.577Z,100.00
2023-05-01T00:31:57.890Z,100.00
2023-05-01T00:35:59.950Z,100.00
2023-05-01T00:40:02.063Z,100.00
2023-05-01T00:44:04.486Z,100.00
2023-05-01T00:48:06.732Z,100.00
2023-05-01T00:52:10.005Z,100.00
2023-05-01T00:56:12.580Z,100.00
2023-05-01T01:00:14.885Z,100.00
2023-05-01T01:04:17.080Z,100.00
2023-05-01T01:09:07.984Z,100.00
2023-05-01T01:13:20.265Z,100.00
2023-05-01T01:17:35.455Z,100.00
2023-05-01T01:21:44.880Z,100.00
2023-05-01T01:26:03.206Z,100.00
2023-05-01T01:30:23.405Z,100.00
2023-05-01T01:34:28.075Z,100.00
2023-05-01T01:38:42.477Z,100.00
2023-05-01T01:42:53.704Z,100.00
2023-05-01T01:46:56.628Z,100.00
2023-05-01T01:51:01.013Z,100.00
2023-05-01T01:55:08.894Z,100.00
2023-05-01T01:59:11.237Z,100.00
2023-05-01T02:03:15.071Z,100.00
2023-05-01T02:07:20.275Z,100.00
2023-05-01T02:11:25.204Z,100.00
2023-05-01T02:15:30.004Z,100.00
2023-05-01T02:19:34.499Z,100.00
2023-05-01T02:23:38.326Z,100.00
2023-05-01T02:27:57.851Z,100.00
2023-05-01T02:32:01.161Z,100.00
2023-05-01T02:36:05.392Z,100.00
2023-05-01T02:40:09.111Z,100.00
2023-05-01T02:44:13.052Z,100.00
2023-05-01T02:48:18.891Z,100.00
2023-05-01T02:52:22.968Z,100.00
2023-05-01T02:56:31.680Z,100.00
2023-05-01T03:00:34.470Z,100.00
2023-05-01T03:04:36.545Z,100.00
2023-05-01T03:08:38.633Z,100.00
2023-05-01T03:12:40.941Z,100.00
2023-05-01T03:16:43.710Z,100.00
2023-05-01T03:20:53.533Z,100.00
2023-05-01T03:24:55.673Z,100.00
2023-05-01T03:28:58.419Z,100.00
2023-05-01T03:33:01.983Z,100.00
2023-05-01T03:37:06.973Z,100.00
2023-05-01T03:41:10.016Z,100.00
2023-05-01T03:45:31.048Z,100.00
2023-05-01T03:49:33.306Z,100.00
2023-05-01T03:53:36.711Z,100.00
2023-05-01T03:57:41.192Z,100.00
2023-05-01T04:01:44.282Z,100.00
2023-05-01T04:05:46.437Z,100.00
2023-05-01T04:09:48.574Z,100.00
2023-05-01T04:13:50.618Z,100.00
2023-05-01T04:17:55.834Z,100.00
2023-05-01T04:21:58.676Z,100.00
2023-05-01T04:26:01.455Z,100.00
2023-05-01T04:30:03.772Z,100.00
2023-05-01T04:34:06.885Z,100.00
2023-05-01T04:38:11.702Z,100.00
2023-05-01T04:42:15.751Z,100.00
2023-05-01T04:46:17.835Z,100.00
2023-05-01T04:50:20.042Z,100.00
2023-05-01T04:54:23.455Z,100.00
2023-05-01T04:58:25.495Z,100.00
2023-05-01T05:02:33.525Z,100.00
2023-05-01T05:06:35.689Z,100.00
2023-05-01T05:10:38.414Z,100.00
2023-05-01T05:15:12.321Z,100.00
2023-05-01T05:19:14.455Z,100.00
2023-05-01T05:23:17.927Z,100.00
2023-05-01T05:27:20.223Z,100.00
2023-05-01T05:31:23.604Z,100.00
2023-05-01T05:35:26.118Z,100.00
2023-05-01T05:39:28.346Z,100.00
2023-05-01T05:43:30.940Z,100.00
2023-05-01T05:47:33.114Z,100.00
2023-05-01T05:51:35.932Z,100.00
2023-05-01T05:55:38.903Z,100.00
2023-05-01T05:59:41.888Z,100.00
2023-05-01T06:03:44.751Z,100.00
2023-05-01T06:07:47.131Z,100.00
2023-05-01T06:11:49.231Z,96.98
2023-05-01T06:15:52.486Z,77.96
2023-05-01T06:19:55.202Z,76.52
2023-05-01T06:23:57.990Z,92.23
2023-05-01T06:28:22.551Z,77.92
2023-05-01T06:32:24.386Z,75.86
2023-05-01T06:36:26.402Z,73.95
2023-05-01T06:40:28.660Z,75.42
2023-05-01T06:44:32.778Z,78.01
2023-05-01T06:48:36.555Z,81.45
2023-05-01T06:52:38.806Z,81.25
2023-05-01T06:56:42.375Z,68.10
2023-05-01T07:00:44.489Z,72.46
2023-05-01T07:04:46.504Z,63.10
2023-05-01T07:08:49.008Z,64.85
2023-05-01T07:12:51.008Z,63.67
2023-05-01T07:16:53.123Z,71.60
2023-05-01T07:20:55.600Z,71.62
2023-05-01T07:24:57.716Z,69.38
2023-05-01T07:28:59.746Z,67.26
2023-05-01T07:33:01.774Z,65.99
2023-05-01T07:37:05.005Z,67.01
2023-05-01T07:41:07.286Z,62.17
2023-05-01T07:45:09.759Z,63.50
2023-05-01T07:49:11.776Z,64.25
2023-05-01T07:53:13.814Z,64.63
2023-05-01T07:57:15.809Z,60.59
2023-05-01T08:01:17.933Z,62.03
2023-05-01T08:05:19.909Z,60.78
2023-05-01T08:09:22.100Z,63.53
2023-05-01T08:13:24.242Z,60.11
2023-05-01T08:17:26.379Z,59.32
2023-05-01T08:21:28.482Z,61.25
2023-05-01T08:25:31.637Z,59.74
2023-05-01T08:29:34.258Z,59.90
2023-05-01T08:33:35.942Z,58.79
2023-05-01T08:37:38.319Z,57.52
2023-05-01T08:41:40.349Z,58.49
2023-05-01T08:45:42.871Z,57.03
2023-05-01T08:49:45.973Z,55.60
2023-05-01T08:53:50.718Z,55.75
2023-05-01T08:57:53.312Z,54.93
2023-05-01T09:01:56.525Z,58.64
2023-05-01T09:06:00.219Z,57.95
2023-05-01T09:10:02.429Z,53.01
2023-05-01T09:14:08.572Z,51.28
2023-05-01T09:18:11.603Z,53.93
2023-05-01T09:22:13.719Z,50.76
2023-05-01T09:26:15.878Z,50.66
2023-05-01T09:30:37.836Z,47.34
2023-05-01T09:34:39.883Z,47.28
2023-05-01T09:38:43.465Z,47.44
2023-05-01T09:42:53.474Z,42.07
2023-05-01T09:46:55.548Z,49.93
2023-05-01T09:50:57.720Z,47.70
2023-05-01T09:55:13.820Z,47.95
2023-05-01T09:59:20.530Z,44.08
2023-05-01T10:03:22.925Z,47.98
2023-05-01T10:07:25.078Z,47.02
2023-05-01T10:11:27.298Z,50.35
2023-05-01T10:15:38.431Z,49.33
2023-05-01T10:19:40.782Z,46.85
2023-05-01T10:23:42.891Z,48.54
2023-05-01T10:27:45.264Z,49.71
2023-05-01T10:31:47.508Z,44.89
2023-05-01T10:35:58.869Z,47.92
2023-05-01T10:40:00.988Z,44.91
2023-05-01T10:44:23.203Z,46.56
2023-05-01T10:48:40.728Z,45.85
2023-05-01T10:53:15.695Z,44.95
2023-05-01T10:57:47.049Z,49.24
2023-05-01T11:01:51.953Z,46.46
2023-05-01T11:06:00.340Z,43.66
2023-05-01T11:10:02.655Z,43.72
2023-05-01T11:14:06.393Z,45.25
2023-05-01T11:18:08.760Z,46.74
2023-05-01T11:22:14.008Z,43.14
2023-05-01T11:26:16.251Z,44.71
2023-05-01T11:30:18.979Z,44.30
2023-05-01T11:34:21.310Z,43.49
2023-05-01T11:38:23.586Z,41.10
2023-05-01T11:42:25.818Z,44.82
2023-05-01T11:46:32.781Z,39.16
2023-05-01T11:50:37.128Z,42.97
2023-05-01T11:54:48.072Z,42.32
2023-05-01T11:58:50.708Z,40.55
2023-05-01T12:02:57.549Z,42.06
2023-05-01T12:06:59.920Z,40.79
2023-05-01T12:11:02.432Z,41.50
2023-05-01T12:15:05.089Z,40.88
2023-05-01T12:19:07.571Z,42.44
2023-05-01T12:23:12.065Z,38.50
2023-05-01T12:27:14.133Z,39.44
2023-05-01T12:31:16.259Z,36.99
2023-05-01T12:35:18.385Z,37.77
2023-05-01T12:39:23.497Z,38.93
2023-05-01T12:43:34.137Z,38.02
2023-05-01T12:47:37.783Z,40.15
2023-05-01T12:51:39.828Z,38.66
2023-05-01T12:55:50.795Z,38.43
2023-05-01T13:00:01.250Z,39.77
2023-05-01T13:04:03.510Z,39.20
2023-05-01T13:08:06.057Z,38.40
2023-05-01T13:12:09.850Z,41.62
2023-05-01T13:16:16.680Z,38.73
2023-05-01T13:20:26.888Z,38.48
2023-05-01T13:24:55.557Z,37.05
2023-05-01T13:28:58.753Z,40.67
2023-05-01T13:33:01.886Z,37.13
2023-05-01T13:37:04.151Z,37.01
2023-05-01T13:41:06.167Z,37.22
2023-05-01T13:45:08.962Z,35.84
2023-05-01T13:49:11.227Z,37.19
2023-05-01T13:53:14.523Z,36.63
2023-05-01T13:57:17.344Z,38.95
2023-05-01T14:01:21.413Z,39.66
2023-05-01T14:05:30.559Z,35.44
2023-05-01T14:09:39.288Z,37.06
2023-05-01T14:13:45.889Z,34.95
2023-05-01T14:17:49.215Z,35.87
2023-05-01T14:21:52.414Z,37.44
2023-05-01T14:25:54.485Z,39.16
2023-05-01T14:29:56.427Z,36.20
2023-05-01T14:34:00.678Z,34.71
2023-05-01T14:38:14.079Z,40.60
2023-05-01T14:42:16.281Z,35.92
2023-05-01T14:46:27.889Z,36.90
2023-05-01T14:50:31.334Z,38.83
2023-05-01T14:54:44.161Z,38.33
2023-05-01T14:58:47.187Z,43.16
2023-05-01T15:02:49.611Z,37.25
2023-05-01T15:06:52.222Z,38.44
2023-05-01T15:10:54.304Z,38.67
2023-05-01T15:14:56.497Z,36.84
2023-05-01T15:18:58.679Z,39.20
2023-05-01T15:23:00.835Z,38.22
2023-05-01T15:27:03.158Z,39.11
2023-05-01T15:31:06.351Z,37.25
2023-05-01T15:35:09.227Z,42.07
2023-05-01T15:39:12.008Z,34.66
2023-05-01T15:43:13.946Z,35.18
2023-05-01T15:47:16.428Z,31.00
2023-05-01T15:51:19.671Z,32.79
2023-05-01T15:55:22.014Z,32.66
2023-05-01T15:59:24.855Z,33.97
2023-05-01T16:03:27.037Z,34.79
2023-05-01T16:07:29.599Z,35.92
2023-05-01T16:11:32.561Z,36.37
2023-05-01T16:15:36.333Z,37.72
2023-05-01T16:19:39.177Z,38.13
2023-05-01T16:23:41.953Z,40.35
2023-05-01T16:27:45.858Z,41.94
2023-05-01T16:31:48.012Z,41.18
2023-05-01T16:35:50.232Z,39.66
2023-05-01T16:39:52.648Z,39.75
2023-05-01T16:43:59.326Z,40.97
2023-05-01T16:48:01.312Z,43.97
2023-05-01T16:52:04.463Z,41.37
2023-05-01T16:56:08.999Z,41.66
2023-05-01T17:00:11.681Z,43.44
2023-05-01T17:04:15.086Z,43.36
2023-05-01T17:08:17.349Z,44.16
2023-05-01T17:12:19.375Z,45.46
2023-05-01T17:16:21.807Z,46.92
2023-05-01T17:20:23.826Z,47.92
2023-05-01T17:24:26.958Z,49.98
2023-05-01T17:28:29.023Z,52.90
2023-05-01T17:32:36.911Z,54.63
2023-05-01T17:36:39.182Z,57.06
2023-05-01T17:40:41.364Z,57.12
2023-05-01T17:44:43.356Z,61.02
2023-05-01T17:48:45.564Z,60.01
2023-05-01T17:52:47.832Z,62.12
2023-05-01T17:56:49.925Z,61.84
2023-05-01T18:00:51.961Z,61.68
2023-05-01T18:04:55.229Z,64.92
2023-05-01T18:08:57.524Z,69.90
2023-05-01T18:12:59.731Z,78.01
2023-05-01T18:17:01.813Z,76.35
2023-05-01T18:21:04.078Z,88.75
2023-05-01T18:25:06.762Z,93.54
2023-05-01T18:29:08.808Z,100.00
2023-05-01T18:33:12.060Z,100.00
2023-05-01T18:37:14.816Z,97.95
2023-05-01T18:41:16.753Z,100.00
2023-05-01T18:45:18.982Z,100.00
2023-05-01T18:49:23.882Z,100.00
2023-05-01T18:53:26.084Z,100.00
2023-05-01T18:57:28.663Z,100.00
2023-05-01T19:01:30.851Z,100.00
2023-05-01T19:05:32.927Z,100.00
2023-05-01T19:09:35.138Z,97.81
2023-05-01T19:13:37.366Z,97.87
2023-05-01T19:17:39.549Z,100.00
2023-05-01T19:21:41.693Z,100.00
2023-05-01T19:25:43.680Z,94.13
2023-05-01T19:29:45.700Z,93.50
2023-05-01T19:33:48.281Z,97.08
2023-05-01T19:37:58.404Z,90.62
2023-05-01T19:42:02.180Z,88.60
2023-05-01T19:46:04.719Z,89.38
2023-05-01T19:50:07.960Z,91.51
2023-05-01T19:54:10.004Z,91.29
2023-05-01T19:58:12.139Z,99.13
2023-05-01T20:02:14.212Z,97.55
2023-05-01T20:06:16.446Z,100.00
2023-05-01T20:10:18.244Z,97.95
2023-05-01T20:14:20.373Z,99.89
2023-05-01T20:18:22.336Z,100.00
2023-05-01T20:22:24.405Z,100.00
2023-05-01T20:26:26.635Z,100.00
2023-05-01T20:30:29.786Z,100.00
2023-05-01T20:34:32.518Z,100.00
2023-05-01T20:38:41.684Z,100.00
2023-05-01T20:42:43.598Z,100.00
2023-05-01T20:46:46.770Z,100.00
2023-05-01T20:50:49.784Z,100.00
2023-05-01T20:54:51.790Z,100.00
2023-05-01T20:58:54.421Z,100.00
2023-05-01T21:02:58.045Z,100.00
2023-05-01T21:07:00.135Z,100.00
2023-05-01T21:11:02.777Z,100.00
2023-05-01T21:15:05.458Z,100.00
2023-05-01T21:19:07.638Z,100.00
2023-05-01T21:23:09.616Z,100.00
2023-05-01T21:27:12.376Z,100.00
2023-05-01T21:31:15.940Z,100.00
2023-05-01T21:35:20.685Z,100.00
2023-05-01T21:39:24.716Z,100.00
2023-05-01T21:43:26.891Z,100.00
2023-05-01T21:47:29.606Z,100.00
2023-05-01T21:51:33.062Z,100.00
2023-05-01T21:55:35.131Z,100.00
2023-05-01T21:59:38.754Z,100.00
2023-05-01T22:03:41.694Z,100.00
2023-05-01T22:07:45.372Z,100.00
2023-05-01T22:11:47.335Z,100.00
2023-05-01T22:15:49.544Z,100.00
2023-05-01T22:19:52.051Z,100.00
2023-05-01T22:23:55.424Z,100.00
2023-05-01T22:27:57.836Z,100.00
2023-05-01T22:32:00.024Z,100.00
2023-05-01T22:36:02.074Z,100.00
2023-05-01T22:40:04.881Z,100.00
2023-05-01T22:44:07.367Z,100.00
2023-05-01T22:48:09.719Z,100.00
2023-05-01T22:52:11.763Z,100.00
2023-05-01T22:56:14.017Z,100.00
2023-05-01T23:00:16.818Z,100.00
2023-05-01T23:04:19.410Z,100.00
2023-05-01T23:08:21.677Z,100.00
2023-05-01T23:12:25.609Z,100.00
2023-05-01T23:16:28.142Z,100.00
2023-05-01T23:20:30.430Z,100.00
2023-05-01T23:24:41.678Z,100.00
2023-05-01T23:28:43.724Z,100.00
2023-05-01T23:32:46.089Z,100.00
2023-05-01T23:36:48.364Z,100.00
2023-05-01T23:40:50.862Z,100.00
2023-05-01T23:44:53.065Z,100.00
2023-05-01T23:48:55.124Z,100.00
2023-05-01T23:52:57.208Z,100.00
2023-05-01T23:56:59.845Z,100.00
